< Cyclone 201719 2017 Season Cyclone 201722 >
Cyclone 201720 (Blanche)
General InformationDetailed Track InformationTrack Information on Google MapsList of All Images || ResourceGoogle EarthGE AnimationAtom FeedGeoJSON
Detalied Best Track Wind (Time Zone = UTC)
Year Month Day Hour Lat. Long. Wind (kt) Gust (kt) Direc. of Major Storm Axis Radius of Major Storm Axis (nm) Radius of Minor Storm Axis (nm) Direc. of Major Gale Axis Radius of Major Gale Axis (nm) Radius of Minor Gale Axis (nm) Image
2017 3 1 00 -8.9 138.5 15 45 symmetric - - symmetric - - Image
2017 3 1 06 -9.4 139.0 15 45 symmetric - - symmetric - - Image
2017 3 1 12 -9.2 138.5 15 45 symmetric - - symmetric - - Image
2017 3 1 18 -8.4 137.5 15 45 symmetric - - symmetric - - Image
2017 3 2 00 -8.0 135.6 15 45 symmetric - - symmetric - - Image
2017 3 2 06 -7.8 134.8 15 45 symmetric - - symmetric - - Image
2017 3 2 12 -7.7 134.2 15 45 symmetric - - symmetric - - Image
2017 3 2 18 -7.6 133.7 15 45 symmetric - - symmetric - - Image
2017 3 3 00 -7.7 133.4 20 45 symmetric - - symmetric - - Image
2017 3 3 06 -7.8 132.9 25 45 symmetric - - symmetric - - Image
2017 3 3 12 -7.9 133.1 25 45 symmetric - - symmetric - - Image
2017 3 3 18 -8.8 133.0 25 45 symmetric - - symmetric - - Image
2017 3 4 00 -9.5 132.4 25 45 symmetric - - symmetric - - Image
2017 3 4 06 -9.7 131.8 25 45 symmetric - - symmetric - - Image
2017 3 4 12 -10.3 131.4 25 45 symmetric - - symmetric - - Image
2017 3 4 18 -11.4 130.8 30 45 symmetric - - symmetric - - Image
2017 3 4 21 -11.6 130.5 30 45 symmetric - - symmetric - - Image
2017 3 4 22 -11.7 130.3 35 50 symmetric - - symmetric - - Image
2017 3 4 23 -11.8 130.1 35 50 symmetric - - symmetric - - Image
2017 3 5 00 -11.7 130.0 35 50 symmetric - - symmetric - - Image
2017 3 5 01 -11.6 129.9 30 45 symmetric - - symmetric - - Image
2017 3 5 02 -11.7 129.9 30 -1 symmetric - - symmetric - - Image
2017 3 5 03 -11.8 129.9 30 -1 symmetric - - symmetric - - Image
2017 3 5 06 -12.1 129.7 30 45 symmetric - - symmetric - - Image
2017 3 5 12 -12.5 129.1 40 55 symmetric - - symmetric - - Image
2017 3 5 15 -12.8 128.6 43.3333 -1 symmetric - - symmetric - - Image
2017 3 5 18 -13.2 128.5 50 70 symmetric - - symmetric - - Image
2017 3 6 00 -13.9 128.2 55 75 symmetric - - symmetric - - Image
2017 3 6 01 -14.1 128.1 55 -1 symmetric - - symmetric - - Image
2017 3 6 02 -14.2 127.9 55 -1 symmetric - - symmetric - - Image
2017 3 6 03 -14.3 127.8 55 75 symmetric - - symmetric - - Image
2017 3 6 04 -14.5 127.7 51.6667 -1 symmetric - - symmetric - - Image
2017 3 6 05 -14.6 127.6 48.3333 -1 symmetric - - symmetric - - Image
2017 3 6 06 -14.8 127.5 45 65 symmetric - - symmetric - - Image
2017 3 6 09 -15.1 127.3 35 55 symmetric - - symmetric - - Image
2017 3 6 12 -15.4 127.1 30 45 symmetric - - symmetric - - Image
< Cyclone 201719 2017 Season Cyclone 201722 >

Help